Estación de Illapel

Ultimos registro cada 15 minutos 66
Estación Fecha / Hora Temperatura Humedad Lluvia Velocidad Dirección Radiación Presion
66 Illapel 31-08-2026 16:30 20,9 37 0 3,1 326 381 997,7
65 Illapel 31-08-2026 16:15 21,2 37 0 2,2 306 429 997,6
64 Illapel 31-08-2026 16:00 21,7 36 0 3,6 316 480 997,7
63 Illapel 31-08-2026 15:30 22,2 37 0 0,9 316 548 997,9
62 Illapel 31-08-2026 15:15 22,9 36 0 3,1 291 594 997,7
61 Illapel 31-08-2026 15:00 23 35 0 0,9 295 633 997,8
60 Illapel 31-08-2026 14:45 22,9 36 0 0,9 346 673 997,8
59 Illapel 31-08-2026 14:30 22,6 36 0 0,9 261 703 998,2
58 Illapel 31-08-2026 14:15 22,5 37 0 0,4 334 733 998,3
57 Illapel 31-08-2026 14:00 22,4 37 0 0,9 274 759 998,6
56 Illapel 31-08-2026 13:45 22,6 35 0 1,3 254 780 998,9
55 Illapel 31-08-2026 13:30 22,4 34 0 0 315 798 999,1
54 Illapel 31-08-2026 13:15 22,6 34 0 1,8 323 812 999,2
53 Illapel 31-08-2026 13:00 22,6 34 0 1,8 338 819 999,5
52 Illapel 31-08-2026 12:45 22,3 38 0 0,4 33 824 999,6
51 Illapel 31-08-2026 12:30 22 35 0 0,4 37 826 999,7
50 Illapel 31-08-2026 12:15 21,3 37 0 0,9 74 246 1000,2
49 Illapel 31-08-2026 12:00 21,1 37 0 0,9 15 32 1000,2
48 Illapel 31-08-2026 11:45 20,7 40 0 0,9 49 30 1000,4
47 Illapel 31-08-2026 11:30 20,5 43 0 1,3 44 30 1000,7
46 Illapel 31-08-2026 11:15 20 41 0 0 51 30 1001,2
45 Illapel 31-08-2026 11:00 19,7 43 0 1,3 66 30 1001,4
44 Illapel 31-08-2026 10:45 19,5 43 0 0,9 83 30 1001,6
43 Illapel 31-08-2026 10:30 18,9 46 0 2,2 62 30 1001,8
42 Illapel 31-08-2026 10:15 18,3 46 0 0,4 46 455 1001,8
41 Illapel 31-08-2026 10:00 17,4 48 0 0 52 587 1001,9
40 Illapel 31-08-2026 09:45 16,7 50 0 0,9 108 506 1002,3
39 Illapel 31-08-2026 09:30 16,1 52 0 0,4 83 494 1002,3
38 Illapel 31-08-2026 09:15 15,6 51 0 0 71 448 1002,5
37 Illapel 31-08-2026 09:00 15,4 52 0 1,3 51 244 1002,8
36 Illapel 31-08-2026 08:45 14,3 52 0 0,9 118 396 1003,6
35 Illapel 31-08-2026 08:30 13,3 51 0 0,4 72 262 1002,9
34 Illapel 31-08-2026 08:15 12,5 49 0 0 60 239 1002,9
33 Illapel 31-08-2026 08:00 11,9 44 0 0,9 79 63 1002,5
32 Illapel 31-08-2026 07:45 11,1 37 0 0,4 131 88 1001,6
31 Illapel 31-08-2026 07:30 10,2 40 0 0,4 129 69 1001,3
30 Illapel 31-08-2026 07:15 10,1 40 0 0,4 184 11 1001,2
29 Illapel 31-08-2026 07:00 10,3 39 0 0,4 184 0 1001
28 Illapel 31-08-2026 06:45 10,4 39 0 0 191 0 1000,9
27 Illapel 31-08-2026 06:30 10,6 38 0 0 192 0 1000,7
26 Illapel 31-08-2026 06:15 10,7 38 0 0 191 0 1000,5
25 Illapel 31-08-2026 06:00 10,7 36 0 0,4 127 0 1000,5
24 Illapel 31-08-2026 05:45 10,7 36 0 0 123 0 1000,7
23 Illapel 31-08-2026 05:30 10,8 36 0 0 123 0 1000,5
22 Illapel 31-08-2026 05:15 10,8 36 0 0 123 0 1000,5
21 Illapel 31-08-2026 05:00 10,8 36 0 0 121 0 1000,6
20 Illapel 31-08-2026 04:45 10,8 36 0 0,4 104 0 1000,5
19 Illapel 31-08-2026 04:30 10,8 36 0 0,4 121 0 1000,5
18 Illapel 31-08-2026 04:15 10,7 37 0 0 81 0 1000,4
17 Illapel 31-08-2026 04:00 10,6 37 0 0 81 0 1000,2
16 Illapel 31-08-2026 03:45 10,6 37 0 0 81 0 1000,1
15 Illapel 31-08-2026 03:30 10,4 37 0 0 81 0 1000,1
14 Illapel 31-08-2026 03:15 10,5 37 0 0 81 0 1000,1
13 Illapel 31-08-2026 03:00 10,6 38 0 0 81 0 1000
12 Illapel 31-08-2026 02:45 10,6 38 0 0 82 0 999,9
11 Illapel 31-08-2026 02:30 10,7 38 0 0,9 87 0 999,9
10 Illapel 31-08-2026 02:15 10,7 39 0 0 92 0 999,6
9 Illapel 31-08-2026 02:00 10,8 41 0 0 92 0 999,8
8 Illapel 31-08-2026 01:45 10,9 42 0,3 0 91 0 999,9
7 Illapel 31-08-2026 01:30 10,9 44 0 0 92 0 999,9
6 Illapel 31-08-2026 01:15 11,1 44 0 0 98 0 1000
5 Illapel 31-08-2026 01:00 11,3 44 0,3 0 98 0 1000,2
4 Illapel 31-08-2026 00:45 11,9 43 0 0 103 0 1000,2
3 Illapel 31-08-2026 00:30 12,4 45 0,3 0 73 0 1000,1
2 Illapel 31-08-2026 00:15 12,7 48 0 0 149 0 1000,2
1 Illapel 31-08-2026 00:00 12,8 52 0,3 0,9 173 0 999,9